Time;durP1;ratioP1;P1;durP2;ratioP2;P2;SDS_P1;SDS_P2;PMS_P1;PMS_P2;Temp;Humidity;BMP_temperature;BMP_pressure;BME280_temperature;BME280_humidity;BME280_pressure;Samples;Min_cycle;Max_cycle;Signal;HPM_P1;HPM_P2
2022/10/10 00:00:46;;;;;;;4.22;2.40;;;;;;;11.96;69.93;100170.38;6042191;23;20034;-81
2022/10/10 00:03:12;;;;;;;4.38;2.53;;;;;;;12.03;70.13;100198.13;6040905;23;20019;-80
2022/10/10 00:05:39;;;;;;;3.90;2.70;;;;;;;12.13;70.33;100218.94;6042697;23;20049;-79
2022/10/10 00:08:06;;;;;;;2.92;2.05;;;;;;;12.16;70.44;100224.13;6042424;23;20019;-80
2022/10/10 00:10:33;;;;;;;2.92;2.30;;;;;;;12.07;70.06;100211.16;6018692;23;20065;-81
2022/10/10 00:12:59;;;;;;;3.85;2.20;;;;;;;12.01;69.84;100201.66;6067552;23;20591;-80
2022/10/10 00:15:25;;;;;;;3.10;2.10;;;;;;;11.99;69.94;100204.28;6041843;23;20464;-79
2022/10/10 00:17:51;;;;;;;2.63;2.10;;;;;;;12.03;69.97;100219.00;6067708;23;20037;-80
2022/10/10 00:20:19;;;;;;;3.33;2.30;;;;;;;12.08;70.05;100225.94;6067958;23;20453;-80
2022/10/10 00:22:45;;;;;;;2.92;1.92;;;;;;;11.97;69.92;100205.13;6041357;23;20110;-80
2022/10/10 00:25:12;;;;;;;7.15;2.38;;;;;;;12.02;69.60;100222.53;6041906;23;20070;-80
2022/10/10 00:27:38;;;;;;;3.50;2.20;;;;;;;12.01;70.15;100214.69;6071067;23;20022;-81
2022/10/10 00:30:06;;;;;;;3.85;1.80;;;;;;;11.98;69.98;100210.34;6046286;23;20097;-81
2022/10/10 00:32:33;;;;;;;2.38;2.00;;;;;;;12.02;69.98;100221.63;6017394;23;20018;-81
2022/10/10 00:34:59;;;;;;;2.42;2.08;;;;;;;11.83;69.72;100194.81;6041502;23;20014;-80
2022/10/10 00:37:25;;;;;;;3.55;2.33;;;;;;;12.07;69.73;100242.47;6068312;23;20073;-79
2022/10/10 00:39:51;;;;;;;5.38;2.40;;;;;;;12.01;69.62;100236.44;6041495;23;20071;-80
2022/10/10 00:42:17;;;;;;;3.75;2.33;;;;;;;12.04;69.94;100245.97;6067672;23;20022;-80
2022/10/10 00:44:46;;;;;;;3.05;2.03;;;;;;;12.01;69.84;100246.00;6041758;23;20101;-80
2022/10/10 00:47:12;;;;;;;2.70;1.92;;;;;;;11.96;69.82;100240.78;6042020;23;20047;-82
2022/10/10 00:49:42;;;;;;;5.25;2.50;;;;;;;11.88;69.13;100232.16;6041742;23;20019;-80
2022/10/10 00:52:10;;;;;;;3.70;2.00;;;;;;;11.83;69.90;100236.53;6041376;23;20018;-81
2022/10/10 00:54:37;;;;;;;5.47;2.38;;;;;;;12.00;69.85;100260.78;6067010;23;20073;-80
2022/10/10 00:57:10;;;;;;;3.60;2.30;;;;;;;11.93;69.70;100232.97;6067704;23;20018;-81
2022/10/10 00:59:39;;;;;;;4.03;2.30;;;;;;;12.03;68.77;100257.28;6041859;23;20476;-80
2022/10/10 01:02:06;;;;;;;4.95;2.40;;;;;;;11.99;69.40;100255.56;6066226;23;20023;-80
2022/10/10 01:04:39;;;;;;;5.32;2.38;;;;;;;11.94;69.47;100263.41;6041166;23;20011;-80
2022/10/10 01:07:10;;;;;;;2.35;2.15;;;;;;;11.84;69.67;100236.53;6066096;23;20046;-79
2022/10/10 01:09:39;;;;;;;4.45;2.20;;;;;;;11.96;69.33;100261.66;6022006;23;20019;-79
2022/10/10 01:12:15;;;;;;;3.13;2.00;;;;;;;12.02;69.52;100258.16;6067489;23;20078;-81
2022/10/10 01:15:02;;;;;;;4.47;2.10;;;;;;;12.01;69.48;100264.25;6065490;23;20453;-81
2022/10/10 01:17:35;;;;;;;3.10;2.10;;;;;;;12.01;69.04;100269.47;5994058;23;20457;-79
2022/10/10 01:20:29;;;;;;;3.45;1.80;;;;;;;11.95;69.53;100274.69;6018367;23;20022;-80
2022/10/10 01:23:08;;;;;;;2.50;2.00;;;;;;;11.85;68.81;100281.69;6040567;23;20331;-80
2022/10/10 01:25:46;;;;;;;2.88;2.00;;;;;;;11.74;69.07;100282.66;6040810;23;20603;-80
2022/10/10 01:28:30;;;;;;;3.63;2.30;;;;;;;11.74;69.73;100277.44;6041337;23;20461;-80
2022/10/10 01:30:58;;;;;;;4.40;2.30;;;;;;;11.65;69.12;100271.41;6047304;23;20018;-80
2022/10/10 01:33:35;;;;;;;3.85;2.28;;;;;;;11.74;69.21;100297.41;6074719;23;20356;-80
2022/10/10 01:36:26;;;;;;;3.53;2.05;;;;;;;11.82;69.56;100292.16;6050304;23;20027;-81
2022/10/10 01:39:05;;;;;;;5.20;1.95;;;;;;;11.81;69.63;100287.81;6066182;23;20030;-79
2022/10/10 01:41:42;;;;;;;4.07;2.38;;;;;;;11.79;69.19;100292.19;6040826;23;20022;-81
2022/10/10 01:44:08;;;;;;;4.82;2.30;;;;;;;11.73;69.88;100269.59;6042206;23;20022;-79
2022/10/10 01:46:34;;;;;;;2.88;2.35;;;;;;;11.88;68.79;100292.13;6073599;23;20023;-80
2022/10/10 01:49:01;;;;;;;4.63;2.17;;;;;;;11.95;68.94;100311.19;6040128;23;20033;-80
2022/10/10 01:51:33;;;;;;;4.40;2.38;;;;;;;11.94;69.12;100307.72;6040149;23;20034;-79
2022/10/10 01:54:20;;;;;;;3.92;2.00;;;;;;;11.92;69.28;100319.06;6065412;23;20015;-79
2022/10/10 01:56:52;;;;;;;2.20;2.00;;;;;;;11.90;69.24;100324.28;6040523;23;20305;-81
2022/10/10 01:59:21;;;;;;;3.90;2.10;;;;;;;11.93;69.20;100328.59;6065638;23;20026;-80
2022/10/10 02:01:54;;;;;;;4.30;2.17;;;;;;;11.94;68.94;100323.38;6040108;23;20023;-80
2022/10/10 02:04:47;;;;;;;3.85;1.95;;;;;;;11.95;69.26;100338.16;6040338;23;20369;-78
2022/10/10 02:07:55;;;;;;;3.83;2.10;;;;;;;11.93;69.24;100336.41;6065412;23;20034;-80
2022/10/10 02:10:25;;;;;;;3.42;2.20;;;;;;;11.83;68.96;100323.44;6016399;23;20094;-80
2022/10/10 02:12:51;;;;;;;4.10;2.10;;;;;;;11.76;68.87;100319.13;6039951;23;20025;-81
2022/10/10 02:15:21;;;;;;;3.90;2.20;;;;;;;11.90;69.33;100339.91;6017132;23;20033;-78
2022/10/10 02:17:49;;;;;;;3.33;2.08;;;;;;;11.78;69.01;100306.97;6066195;23;20019;-78
2022/10/10 02:20:20;;;;;;;4.55;2.05;;;;;;;11.96;68.92;100347.72;6064367;23;20026;-79
2022/10/10 02:22:49;;;;;;;5.38;1.95;;;;;;;11.90;69.00;100339.91;6016975;23;20041;-81
2022/10/10 02:25:16;;;;;;;5.30;2.20;;;;;;;11.95;68.75;100359.03;6040435;23;20014;-78
2022/10/10 02:27:52;;;;;;;3.03;1.95;;;;;;;11.86;68.57;100344.28;6040208;23;20022;-78
2022/10/10 02:30:18;;;;;;;4.40;2.45;;;;;;;11.82;68.67;100346.91;6065517;23;20022;-80
2022/10/10 02:32:48;;;;;;;4.28;2.00;;;;;;;11.76;68.11;100347.81;6041205;23;20493;-80
2022/10/10 02:35:22;;;;;;;3.00;2.10;;;;;;;11.77;68.45;100357.38;6040847;23;20019;-78
2022/10/10 02:37:50;;;;;;;3.95;2.10;;;;;;;11.79;68.49;100367.81;6041596;23;20472;-80
2022/10/10 02:40:24;;;;;;;2.58;1.65;;;;;;;11.81;68.28;100373.84;6031621;23;20022;-79
2022/10/10 02:42:51;;;;;;;8.55;1.95;;;;;;;11.65;67.86;100366.09;6087430;23;20057;-77
2022/10/10 02:45:19;;;;;;;3.50;2.13;;;;;;;11.74;67.89;100392.16;6040083;23;20304;-80
2022/10/10 02:47:45;;;;;;;2.15;1.90;;;;;;;11.61;67.98;100364.38;6082349;23;20022;-81
2022/10/10 02:50:12;;;;;;;7.28;1.83;;;;;;;11.55;67.76;100361.81;6070402;23;20049;-79
2022/10/10 02:52:38;;;;;;;3.50;1.90;;;;;;;11.55;67.31;100386.13;6041929;23;20121;-78
2022/10/10 02:55:04;;;;;;;2.42;2.00;;;;;;;11.45;66.94;100382.69;6041528;23;20097;-78
2022/10/10 02:57:30;;;;;;;3.67;1.83;;;;;;;11.40;67.25;100402.69;6042128;23;20042;-78
2022/10/10 02:59:56;;;;;;;3.58;1.90;;;;;;;11.29;67.61;100388.81;6041549;23;20083;-80
2022/10/10 03:02:22;;;;;;;4.00;1.73;;;;;;;11.33;66.94;100395.78;6053802;23;20496;-80
2022/10/10 03:04:48;;;;;;;2.05;1.80;;;;;;;11.29;67.35;100401.84;6069445;23;20023;-82
2022/10/10 03:07:14;;;;;;;2.38;1.90;;;;;;;11.30;67.37;100412.25;6065709;23;20023;-80
2022/10/10 03:09:40;;;;;;;2.67;1.88;;;;;;;11.25;66.94;100403.59;6065359;23;20070;-78
2022/10/10 03:12:06;;;;;;;3.40;2.10;;;;;;;11.15;67.27;100392.31;5993334;23;20018;-79
2022/10/10 03:14:32;;;;;;;3.42;2.20;;;;;;;11.18;67.28;100390.56;6039616;23;20364;-81
2022/10/10 03:16:58;;;;;;;3.00;1.80;;;;;;;11.30;67.11;100406.19;6065110;23;20402;-80
2022/10/10 03:19:24;;;;;;;3.60;1.95;;;;;;;11.28;66.99;100397.50;6063163;23;20022;-79
2022/10/10 03:21:50;;;;;;;3.88;2.00;;;;;;;11.17;66.95;100383.63;6039855;23;20472;-79
2022/10/10 03:24:16;;;;;;;4.68;1.70;;;;;;;11.29;66.71;100399.25;6016333;23;20075;-79
2022/10/10 03:26:43;;;;;;;4.38;1.77;;;;;;;11.33;66.32;100406.19;6039591;23;20049;-79
2022/10/10 03:29:09;;;;;;;5.13;1.85;;;;;;;11.35;66.24;100412.28;6065056;23;20473;-78
2022/10/10 03:31:35;;;;;;;2.63;1.92;;;;;;;11.24;66.62;100391.44;6064829;23;20022;-80
2022/10/10 03:34:01;;;;;;;3.00;1.88;;;;;;;11.39;66.52;100423.53;6039467;23;20026;-81
2022/10/10 03:36:27;;;;;;;4.72;1.83;;;;;;;11.30;66.38;100424.44;6038901;23;20030;-80
2022/10/10 03:38:53;;;;;;;3.33;1.95;;;;;;;11.32;66.45;100434.84;6039620;23;20097;-82
2022/10/10 03:41:19;;;;;;;2.80;1.90;;;;;;;11.19;66.29;100424.44;6039819;23;20072;-80
2022/10/10 03:43:45;;;;;;;2.38;1.75;;;;;;;11.33;66.42;100439.19;6040242;23;20025;-79
2022/10/10 03:46:11;;;;;;;3.13;1.67;;;;;;;11.08;65.96;100401.03;6064951;23;20042;-78
2022/10/10 03:48:37;;;;;;;3.75;1.65;;;;;;;11.29;65.96;100435.72;6068506;23;20074;-82
2022/10/10 03:51:03;;;;;;;2.83;1.70;;;;;;;11.35;66.03;100453.06;6040423;23;20080;-79
2022/10/10 03:53:29;;;;;;;4.40;1.65;;;;;;;11.34;66.04;100444.41;6067441;23;20030;-79
2022/10/10 03:55:55;;;;;;;3.35;2.00;;;;;;;11.29;65.70;100447.00;6068728;23;20466;-79
2022/10/10 03:58:21;;;;;;;3.55;1.98;;;;;;;11.15;65.69;100439.19;6066029;23;20059;-78
2022/10/10 04:00:59;;;;;;;3.28;1.85;;;;;;;11.13;65.95;100437.47;6064089;23;20070;-79
2022/10/10 04:03:25;;;;;;;2.60;1.88;;;;;;;11.27;65.81;100466.13;6040957;23;20106;-80
2022/10/10 04:05:52;;;;;;;4.65;1.88;;;;;;;11.29;65.62;100467.84;6040113;23;20022;-80
2022/10/10 04:08:18;;;;;;;4.13;1.95;;;;;;;11.05;65.29;100434.00;6040000;23;20046;-81
2022/10/10 04:10:49;;;;;;;4.85;2.20;;;;;;;11.27;65.93;100481.75;6040653;23;20019;-79
2022/10/10 04:13:15;;;;;;;4.90;2.10;;;;;;;11.11;65.44;100463.53;6066038;23;20046;-77
2022/10/10 04:15:41;;;;;;;4.18;2.20;;;;;;;11.07;65.38;100458.31;6042367;23;20025;-80
2022/10/10 04:18:07;;;;;;;6.55;2.45;;;;;;;11.19;65.62;100493.91;6066633;23;20015;-80
2022/10/10 04:20:33;;;;;;;4.45;2.10;;;;;;;11.20;65.63;100485.22;6069441;23;20025;-81
2022/10/10 04:22:59;;;;;;;4.90;2.78;;;;;;;11.17;65.67;100499.13;6071347;23;20041;-80
2022/10/10 04:25:31;;;;;;;5.95;2.15;;;;;;;11.17;65.75;100487.81;6042659;23;20372;-80
2022/10/10 04:27:57;;;;;;;3.60;2.15;;;;;;;11.00;64.99;100471.34;6066387;23;20018;-80
2022/10/10 04:30:23;;;;;;;6.00;2.72;;;;;;;11.22;65.48;100501.72;6041528;23;20026;-79
2022/10/10 04:32:49;;;;;;;6.18;2.15;;;;;;;11.17;65.59;100488.69;6041891;23;20369;-79
2022/10/10 04:35:16;;;;;;;3.67;2.38;;;;;;;11.26;65.98;100488.69;6042943;23;20546;-80
2022/10/10 04:37:49;;;;;;;3.33;1.90;;;;;;;11.28;65.16;100504.31;6041706;23;20022;-80
2022/10/10 04:40:25;;;;;;;5.32;2.30;;;;;;;11.22;65.21;100496.50;6043023;23;20025;-79
2022/10/10 04:42:56;;;;;;;2.80;2.10;;;;;;;11.30;65.38;100511.25;6065010;23;20025;-79
2022/10/10 04:45:40;;;;;;;;;;;;;;;;;;;;;
2022/10/10 04:48:13;;;;;;;5.25;2.00;;;;;;;11.36;65.21;100525.16;6070710;23;20026;-81
2022/10/10 04:51:13;;;;;;;3.13;2.00;;;;;;;11.37;64.78;100526.91;6043966;23;20461;-78
2022/10/10 04:53:39;;;;;;;3.47;1.58;;;;;;;10.48;64.99;100393.22;6068170;23;20026;-80
2022/10/10 04:56:07;;;;;;;7.53;2.22;;;;;;;10.67;65.17;100409.72;6019039;23;20078;-80
2022/10/10 04:58:33;;;;;;;3.92;2.25;;;;;;;11.28;65.16;100502.56;6041250;23;20018;-80
2022/10/10 05:01:03;;;;;;;4.72;2.13;;;;;;;11.43;64.98;100513.88;6065826;23;20103;-81
2022/10/10 05:03:29;;;;;;;6.05;2.35;;;;;;;11.54;64.94;100517.31;6067476;23;20669;-81
2022/10/10 05:05:56;;;;;;;2.53;1.80;;;;;;;11.55;64.98;100495.59;5995201;23;20023;-80
2022/10/10 05:08:21;;;;;;;2.92;2.05;;;;;;;11.87;64.33;100539.00;6066522;23;20014;-81
2022/10/10 05:10:50;;;;;;;3.97;1.88;;;;;;;11.78;64.57;100514.69;6041527;23;20029;-80
2022/10/10 05:13:19;;;;;;;4.05;2.00;;;;;;;11.87;64.21;100527.69;6041623;23;20025;-80
2022/10/10 05:15:51;;;;;;;4.22;2.22;;;;;;;12.02;64.53;100542.47;6065467;23;20026;-82
2022/10/10 05:18:18;;;;;;;4.40;1.92;;;;;;;11.89;64.67;100526.81;6043732;23;20019;-82
2022/10/10 05:20:46;;;;;;;6.18;2.28;;;;;;;12.06;64.23;100554.63;6017796;23;20365;-80
2022/10/10 05:23:13;;;;;;;2.83;2.15;;;;;;;11.97;64.20;100529.41;6041273;23;20458;-80
2022/10/10 05:25:43;;;;;;;3.63;2.40;;;;;;;12.08;64.03;100544.16;6049237;23;20030;-80
2022/10/10 05:28:11;;;;;;;6.63;2.80;;;;;;;12.16;63.54;100560.69;6066052;23;20038;-80
2022/10/10 05:30:37;;;;;;;4.97;2.45;;;;;;;12.21;63.78;100558.94;6040443;23;20010;-80
2022/10/10 05:33:03;;;;;;;4.80;2.28;;;;;;;12.16;63.11;100547.63;6017760;23;20033;-79
2022/10/10 05:35:29;;;;;;;3.85;2.45;;;;;;;12.31;63.40;100559.75;6041779;23;20018;-81
2022/10/10 05:37:55;;;;;;;3.35;2.42;;;;;;;12.27;63.18;100539.75;6046957;23;20023;-80
2022/10/10 05:40:22;;;;;;;3.50;2.20;;;;;;;12.37;63.14;100553.66;6050366;23;20475;-80
2022/10/10 05:42:48;;;;;;;4.80;2.20;;;;;;;12.40;63.01;100559.72;6069740;23;20026;-81
2022/10/10 05:45:14;;;;;;;4.22;2.63;;;;;;;12.25;62.98;100550.19;6040784;23;20018;-80
2022/10/10 05:47:40;;;;;;;6.95;2.42;;;;;;;12.45;62.60;100567.53;6065476;23;20050;-81
2022/10/10 05:50:17;;;;;;;4.60;2.40;;;;;;;12.29;62.23;100546.72;6067017;23;20045;-80
2022/10/10 05:52:43;;;;;;;3.42;2.30;;;;;;;12.30;62.23;100558.03;6041032;23;20038;-79
2022/10/10 05:55:10;;;;;;;3.05;2.20;;;;;;;12.59;62.57;100564.84;6064836;23;20113;-82
2022/10/10 05:57:36;;;;;;;4.13;2.15;;;;;;;13.51;62.62;100525.91;6066132;23;20029;-81
2022/10/10 06:00:02;;;;;;;6.63;2.20;;;;;;;14.45;62.17;100516.97;6066026;23;20046;-82
2022/10/10 06:02:30;;;;;;;4.40;2.15;;;;;;;15.71;60.74;100566.63;6041620;23;20027;-80
2022/10/10 06:04:56;;;;;;;5.78;2.40;;;;;;;16.44;59.09;100545.09;6065727;23;20018;-80
2022/10/10 06:07:22;;;;;;;4.65;2.00;;;;;;;18.46;59.23;100529.50;6066407;23;20365;-80
2022/10/10 06:09:48;;;;;;;3.30;2.30;;;;;;;21.16;56.31;100533.25;6067464;23;20428;-82
2022/10/10 06:12:14;;;;;;;2.80;1.90;;;;;;;23.25;51.90;100483.16;6069567;23;20019;-85
2022/10/10 06:14:41;;;;;;;4.95;2.20;;;;;;;25.49;47.74;100543.63;6071143;23;20042;-81
2022/10/10 06:17:09;;;;;;;3.38;2.00;;;;;;;26.48;44.08;100542.94;6024443;23;20408;-85
2022/10/10 06:19:37;;;;;;;3.25;1.90;;;;;;;27.14;40.85;100537.78;6045310;23;20011;-84
2022/10/10 06:22:03;;;;;;;3.92;2.00;;;;;;;27.10;38.70;100469.50;6071789;23;20022;-84
2022/10/10 06:24:30;;;;;;;3.83;1.90;;;;;;;28.19;37.47;100536.91;6073011;23;20086;-84
2022/10/10 06:26:56;;;;;;;6.10;1.83;;;;;;;27.76;35.82;100500.66;6048501;23;20094;-81
2022/10/10 06:29:24;;;;;;;4.45;1.90;;;;;;;27.43;35.14;100476.13;6070279;23;20025;-85
2022/10/10 06:31:53;;;;;;;3.28;1.85;;;;;;;27.42;34.79;100502.97;6028578;23;20026;-83
2022/10/10 06:34:25;;;;;;;2.92;1.85;;;;;;;27.86;33.74;100420.66;6061883;23;20019;-83
2022/10/10 06:37:05;;;;;;;3.67;2.67;;;;;;;28.82;32.64;100476.09;6060154;23;20122;-82
2022/10/10 06:39:34;;;;;;;4.07;2.17;;;;;;;30.82;31.41;100550.84;6075555;23;20023;-82
2022/10/10 06:42:06;;;;;;;2.97;2.20;;;;;;;31.03;30.38;100480.19;6045645;23;20101;-83
2022/10/10 06:45:30;;;;;;;;;;;;;;;;;;;;;
2022/10/10 06:49:20;;;;;;;;;;;;;;;;;;;;;
2022/10/10 06:53:11;;;;;;;5.90;2.55;;;;;;;34.54;25.55;100486.88;5915202;24;20032;-84
2022/10/10 06:55:59;;;;;;;6.93;2.78;;;;;;;36.26;25.38;100496.31;5926814;24;20032;-81
2022/10/10 06:58:32;;;;;;;5.47;2.47;;;;;;;37.08;24.31;100519.13;5884846;24;20025;-80
2022/10/10 07:01:04;;;;;;;5.97;2.58;;;;;;;37.37;22.95;100512.34;5909206;24;20024;-81
2022/10/10 07:03:34;;;;;;;4.65;2.35;;;;;;;38.10;22.58;100528.59;6019244;23;20046;-80
2022/10/10 07:06:02;;;;;;;2.63;2.17;;;;;;;38.81;21.31;100524.94;6065647;23;20025;-80
2022/10/10 07:08:32;;;;;;;4.97;2.00;;;;;;;39.47;20.72;100551.59;6062904;23;20040;-80
2022/10/10 07:11:01;;;;;;;6.00;2.47;;;;;;;40.26;19.91;100538.47;6064789;23;20403;-82
2022/10/10 07:13:30;;;;;;;4.22;2.22;;;;;;;40.44;19.34;100508.06;6016637;23;20010;-81
2022/10/10 07:15:59;;;;;;;3.15;2.10;;;;;;;40.72;18.79;100496.41;6004511;23;20465;-80
2022/10/10 07:18:25;;;;;;;5.75;2.30;;;;;;;41.30;18.45;100522.69;6032774;23;20083;-80
2022/10/10 07:21:09;;;;;;;4.40;2.47;;;;;;;41.91;18.15;100519.28;5986240;23;20153;-80
2022/10/10 07:23:41;;;;;;;5.97;2.90;;;;;;;42.08;18.05;100524.41;6011285;23;20043;-80
2022/10/10 07:26:39;;;;;;;3.40;2.10;;;;;;;42.73;17.03;100533.03;6006412;23;20490;-81
2022/10/10 07:29:12;;;;;;;2.17;1.90;;;;;;;43.36;16.85;100541.91;5977500;23;20027;-81
2022/10/10 07:31:53;;;;;;;3.75;2.08;;;;;;;43.94;16.01;100557.53;5989485;23;20019;-81
2022/10/10 07:34:22;;;;;;;3.72;2.13;;;;;;;44.45;15.62;100526.78;6011808;23;20022;-79
2022/10/10 07:36:51;;;;;;;3.20;2.35;;;;;;;43.83;15.44;100529.97;6051304;23;20054;-80
2022/10/10 07:43:10;;;;;;;3.88;2.03;;;;;;;45.08;14.64;100547.00;5935742;24;20303;-80
2022/10/10 07:45:37;;;;;;;4.35;2.17;;;;;;;44.67;14.92;100443.06;5951251;24;20132;-79
2022/10/10 07:48:12;;;;;;;4.10;2.40;;;;;;;45.60;13.99;100559.59;5925756;24;20044;-81
2022/10/10 07:50:44;;;;;;;3.40;1.77;;;;;;;45.45;13.78;100558.06;5924831;24;20099;-80
2022/10/10 07:53:11;;;;;;;3.67;1.95;;;;;;;45.43;13.76;100551.94;5959850;23;20023;-79
2022/10/10 07:55:39;;;;;;;3.55;1.88;;;;;;;45.27;13.69;100535.00;6055576;23;20025;-80
2022/10/10 07:58:05;;;;;;;2.80;1.85;;;;;;;45.26;13.08;100547.06;6063506;23;20027;-81
2022/10/10 08:04:08;;;;;;;2.25;1.60;;;;;;;44.82;12.77;100559.84;6047404;23;20047;-82
2022/10/10 08:06:47;;;;;;;3.75;1.70;;;;;;;44.18;14.06;100535.97;6018778;23;20023;-80
2022/10/10 08:09:31;;;;;;;3.10;1.77;;;;;;;44.29;12.99;100539.91;6019484;23;20022;-80
2022/10/10 08:12:28;;;;;;;2.75;1.80;;;;;;;43.87;13.33;100503.84;6001611;23;20046;-81
2022/10/10 08:15:45;;;;;;;6.07;1.90;;;;;;;42.77;12.30;100445.91;5996769;23;20025;-81
2022/10/10 08:18:47;;;;;;;2.33;1.80;;;;;;;43.41;13.00;100443.53;6048771;23;20023;-82
2022/10/10 08:21:35;;;;;;;3.47;1.80;;;;;;;44.11;13.44;100487.72;6072520;23;20019;-80
2022/10/10 08:24:07;;;;;;;5.22;1.73;;;;;;;43.42;13.32;100551.97;6050200;23;20026;-82
2022/10/10 08:26:36;;;;;;;2.38;1.80;;;;;;;42.62;13.83;100499.97;5997247;23;20023;-79
2022/10/10 08:29:08;;;;;;;2.90;1.73;;;;;;;43.62;12.96;100496.31;6044145;23;20030;-81
2022/10/10 08:31:39;;;;;;;6.63;2.50;;;;;;;44.62;13.06;100541.63;6018476;23;20487;-81
2022/10/10 08:34:05;;;;;;;2.85;1.60;;;;;;;43.81;12.83;100455.41;6046822;23;20025;-78
2022/10/10 08:36:40;;;;;;;3.80;1.80;;;;;;;43.71;13.14;100453.97;6047621;23;20022;-79
2022/10/10 08:39:10;;;;;;;4.43;2.00;;;;;;;44.13;12.60;100548.66;6024719;23;20027;-80
2022/10/10 08:41:54;;;;;;;4.78;1.80;;;;;;;42.98;13.04;100458.56;6027056;23;20026;-82
2022/10/10 08:44:45;;;;;;;2.78;1.73;;;;;;;43.53;13.44;100558.69;6025361;23;20461;-82
2022/10/10 08:47:45;;;;;;;3.03;1.70;;;;;;;42.65;13.27;100555.09;6046915;23;20019;-83
2022/10/10 08:50:23;;;;;;;6.47;1.75;;;;;;;41.63;13.52;100558.44;6068451;23;20014;-80
2022/10/10 08:52:59;;;;;;;1.83;1.50;;;;;;;40.76;14.42;100561.25;6018126;23;20026;-81
2022/10/10 08:55:32;;;;;;;3.03;1.70;;;;;;;40.65;14.29;100567.25;6067291;23;20019;-82
2022/10/10 08:58:04;;;;;;;2.92;1.73;;;;;;;40.37;13.93;100562.50;6041757;23;20022;-81
2022/10/10 09:00:37;;;;;;;3.75;1.80;;;;;;;40.05;13.78;100538.19;6066894;23;20023;-82
2022/10/10 09:03:41;;;;;;;2.83;1.60;;;;;;;40.09;13.13;100565.06;6020544;23;20023;-80
2022/10/10 09:06:22;;;;;;;3.75;1.70;;;;;;;40.99;13.94;100530.19;6008942;23;20025;-80
2022/10/10 09:09:03;;;;;;;3.35;1.67;;;;;;;41.83;13.09;100565.88;6043360;23;20025;-80
2022/10/10 09:11:37;;;;;;;1.60;1.40;;;;;;;42.13;13.09;100560.19;6043095;23;20078;-81
2022/10/10 09:14:22;;;;;;;3.78;1.80;;;;;;;43.04;12.74;100566.31;6069338;23;20038;-81
2022/10/10 09:17:21;;;;;;;4.55;1.70;;;;;;;43.51;11.95;100562.72;6069390;23;20038;-82
2022/10/10 09:20:25;;;;;;;4.30;1.80;;;;;;;43.15;12.03;100521.88;6047009;23;20038;-84
2022/10/10 09:23:09;;;;;;;2.25;1.42;;;;;;;43.30;12.55;100516.19;6044734;23;20085;-81
2022/10/10 09:25:44;;;;;;;2.55;1.60;;;;;;;43.57;12.59;100570.91;6044607;23;20030;-83
2022/10/10 09:29:45;;;;;;;2.83;1.90;;;;;;;43.75;12.31;100569.41;6055920;23;20089;-82
2022/10/10 09:33:26;;;;;;;4.78;1.70;;;;;;;43.64;12.47;100565.44;5901903;24;20030;-80
2022/10/10 09:36:21;;;;;;;2.53;1.40;;;;;;;43.41;12.10;100577.66;5891253;24;20317;-80
2022/10/10 09:39:18;;;;;;;3.15;1.83;;;;;;;41.15;12.62;100566.47;5932043;24;20124;-81
2022/10/10 09:41:58;;;;;;;3.10;1.50;;;;;;;40.20;13.07;100504.66;5912609;24;20069;-80
2022/10/10 09:44:25;;;;;;;2.88;1.70;;;;;;;40.11;13.65;100568.44;5931727;24;20050;-81
2022/10/10 09:46:58;;;;;;;3.42;1.48;;;;;;;40.20;12.97;100570.91;5933773;24;20459;-81
2022/10/10 09:49:24;;;;;;;;;;;;;;;41.08;13.93;100564.53;5936118;24;20053;-82
2022/10/10 09:51:59;;;;;;;3.05;1.50;;;;;;;41.68;13.90;100579.69;5938943;24;19958;-81
2022/10/10 09:54:41;;;;;;;;;;;;;;;;;;;;;
2022/10/10 09:58:06;;;;;;;3.95;1.50;;;;;;;37.91;14.16;100567.88;5939979;24;20157;-81
2022/10/10 10:00:55;;;;;;;;;;;;;;;;;;;;;
2022/10/10 10:04:07;;;;;;;3.55;1.73;;;;;;;32.23;17.27;100586.50;5913636;24;20051;-81
2022/10/10 10:06:33;;;;;;;4.05;1.80;;;;;;;30.52;18.88;100555.06;5914534;24;20108;-81
2022/10/10 10:09:29;;;;;;;2.85;1.50;;;;;;;29.32;19.26;100592.91;5916471;24;20024;-82
2022/10/10 10:12:02;;;;;;;9.27;4.57;;;;;;;27.61;20.35;100487.41;5940937;24;20020;-79
2022/10/10 10:14:35;;;;;;;3.55;1.88;;;;;;;27.29;21.19;100591.94;5971516;24;20001;-82
2022/10/10 10:17:12;;;;;;;6.10;1.65;;;;;;;26.38;22.37;100584.47;5952262;24;20027;-80
2022/10/10 10:19:41;;;;;;;3.58;1.73;;;;;;;25.56;23.00;100599.13;5967891;24;20021;-81
2022/10/10 10:22:40;;;;;;;2.95;1.70;;;;;;;24.71;24.08;100603.94;5971913;24;20473;-80
2022/10/10 10:25:34;;;;;;;3.58;1.60;;;;;;;24.03;24.51;100605.75;5930807;24;20125;-81
2022/10/10 10:28:10;;;;;;;3.35;1.20;;;;;;;23.26;24.95;100605.19;5954744;24;20068;-79
2022/10/10 10:30:45;;;;;;;3.05;1.02;;;;;;;22.76;25.34;100600.47;5936451;24;20019;-80
2022/10/10 10:33:35;;;;;;;3.90;1.30;;;;;;;22.25;25.06;100616.91;5927387;24;20031;-81
2022/10/10 10:36:04;;;;;;;2.67;1.15;;;;;;;21.50;26.04;100613.91;5949155;24;20028;-78
2022/10/10 10:38:44;;;;;;;1.98;1.20;;;;;;;21.06;26.47;100589.22;5937420;24;20737;-81
2022/10/10 10:41:24;;;;;;;2.35;1.10;;;;;;;20.74;26.96;100623.03;6001962;23;20441;-79
2022/10/10 10:47:55;;;;;;;2.72;1.55;;;;;;;20.06;28.18;100625.50;5972474;23;20129;-80
2022/10/10 10:50:43;;;;;;;3.67;1.30;;;;;;;19.79;28.82;100617.59;6065826;23;20014;-81
2022/10/10 10:53:12;;;;;;;2.58;1.42;;;;;;;19.54;28.86;100614.94;6064591;23;20063;-79
2022/10/10 10:59:19;;;;;;;2.92;1.42;;;;;;;19.12;30.11;100624.19;6064604;23;20341;-79
2022/10/10 11:02:12;;;;;;;2.35;1.30;;;;;;;18.08;30.08;100490.25;6068767;23;20018;-81
2022/10/10 11:05:22;;;;;;;2.97;1.67;;;;;;;18.65;30.73;100629.97;6069135;23;20038;-82
2022/10/10 11:08:21;;;;;;;2.40;1.40;;;;;;;18.47;31.21;100639.25;6043958;23;20023;-79
2022/10/10 11:11:04;;;;;;;4.82;1.60;;;;;;;18.32;31.09;100632.63;6068269;23;20200;-79
2022/10/10 11:13:57;;;;;;;3.65;1.40;;;;;;;18.14;31.28;100629.63;6062849;23;20487;-79
2022/10/10 11:16:39;;;;;;;2.47;1.50;;;;;;;16.85;31.85;100453.97;6064753;23;20019;-80
2022/10/10 11:19:45;;;;;;;4.40;1.67;;;;;;;17.64;32.02;100587.91;6066324;23;20030;-77
2022/10/10 11:22:21;;;;;;;2.67;1.20;;;;;;;17.25;32.01;100548.56;6072326;23;20022;-78
2022/10/10 11:25:18;;;;;;;3.47;1.42;;;;;;;17.54;32.37;100626.75;6073739;23;20022;-80
2022/10/10 11:27:51;;;;;;;3.45;1.35;;;;;;;17.31;32.54;100619.44;6060594;23;20026;-79
2022/10/10 11:30:30;;;;;;;5.25;1.50;;;;;;;17.28;32.43;100624.75;6067477;23;20048;-77
2022/10/10 11:33:33;;;;;;;3.28;1.30;;;;;;;17.06;32.79;100627.00;6064300;23;20030;-79
2022/10/10 11:36:37;;;;;;;3.00;1.42;;;;;;;15.49;33.64;100417.50;6008621;23;20469;-80
2022/10/10 11:39:26;;;;;;;3.63;1.20;;;;;;;15.41;33.63;100435.13;6016663;23;20019;-79
2022/10/10 11:42:30;;;;;;;6.18;1.85;;;;;;;16.53;34.20;100628.97;6041597;23;20468;-80
2022/10/10 11:45:35;;;;;;;4.32;1.90;;;;;;;16.37;34.43;100632.78;6042071;23;20051;-80
2022/10/10 11:48:29;;;;;;;7.13;1.80;;;;;;;15.04;34.92;100434.03;6039621;23;20077;-80
2022/10/10 11:51:28;;;;;;;5.65;2.17;;;;;;;16.09;35.17;100639.44;6041396;23;20495;-80
2022/10/10 11:54:01;;;;;;;2.83;1.80;;;;;;;15.52;35.52;100549.44;6018435;23;20101;-80
2022/10/10 11:56:45;;;;;;;2.92;1.52;;;;;;;15.95;35.45;100654.56;6044708;23;20097;-81
2022/10/10 11:59:44;;;;;;;1.60;1.30;;;;;;;14.70;35.58;100445.09;6041804;23;20038;-79
2022/10/10 12:02:25;;;;;;;4.22;1.42;;;;;;;15.38;36.01;100566.28;6018299;23;20026;-79
2022/10/10 12:05:26;;;;;;;1.92;1.42;;;;;;;15.69;36.06;100645.34;6036005;23;20030;-79
2022/10/10 12:07:55;;;;;;;2.53;1.40;;;;;;;15.68;36.41;100638.34;6057601;23;20287;-78
2022/10/10 12:10:38;;;;;;;3.88;1.80;;;;;;;14.91;36.76;100514.59;6065178;23;20018;-78
2022/10/10 12:13:38;;;;;;;9.13;1.67;;;;;;;15.57;36.80;100641.16;6062463;23;20042;-80
2022/10/10 12:16:22;;;;;;;2.30;1.50;;;;;;;15.41;37.09;100624.81;6039468;23;20018;-79
2022/10/10 12:19:17;;;;;;;5.97;1.42;;;;;;;15.46;37.23;100646.56;6045932;23;20460;-82
2022/10/10 12:22:05;;;;;;;4.13;1.65;;;;;;;15.43;37.75;100644.03;6014918;23;20026;-80
2022/10/10 12:25:03;;;;;;;5.97;1.90;;;;;;;15.26;37.79;100627.66;6038631;23;20480;-79
2022/10/10 12:28:05;;;;;;;4.40;1.65;;;;;;;15.08;37.93;100616.56;6038503;23;20397;-78